sensor_id;sensor_type;location;lat;lon;timestamp;P1;durP1;ratioP1;P2;durP2;ratioP2
51358;SDS011;37448;51.588;7.248;2023-08-31T00:01:05;10.50;;;4.38;;
51358;SDS011;37448;51.588;7.248;2023-08-31T00:03:06;10.57;;;3.78;;
51358;SDS011;37448;51.588;7.248;2023-08-31T00:05:06;6.88;;;4.20;;
51358;SDS011;37448;51.588;7.248;2023-08-31T00:07:07;6.28;;;4.25;;
51358;SDS011;37448;51.588;7.248;2023-08-31T00:09:08;6.57;;;4.10;;
51358;SDS011;37448;51.588;7.248;2023-08-31T00:11:11;7.20;;;3.67;;
51358;SDS011;37448;51.588;7.248;2023-08-31T00:13:11;7.70;;;4.07;;
51358;SDS011;37448;51.588;7.248;2023-08-31T00:15:12;8.02;;;3.33;;
51358;SDS011;37448;51.588;7.248;2023-08-31T00:17:13;5.03;;;3.60;;
51358;SDS011;37448;51.588;7.248;2023-08-31T00:19:14;7.55;;;5.07;;
51358;SDS011;37448;51.588;7.248;2023-08-31T00:21:14;6.75;;;3.80;;
51358;SDS011;37448;51.588;7.248;2023-08-31T00:23:15;7.13;;;3.75;;
51358;SDS011;37448;51.588;7.248;2023-08-31T00:25:15;6.15;;;3.50;;
51358;SDS011;37448;51.588;7.248;2023-08-31T00:27:15;11.13;;;3.30;;
51358;SDS011;37448;51.588;7.248;2023-08-31T00:29:17;5.53;;;3.40;;
51358;SDS011;37448;51.588;7.248;2023-08-31T00:31:18;7.57;;;3.40;;
51358;SDS011;37448;51.588;7.248;2023-08-31T00:33:18;6.70;;;2.90;;
51358;SDS011;37448;51.588;7.248;2023-08-31T00:35:19;5.40;;;3.25;;
51358;SDS011;37448;51.588;7.248;2023-08-31T00:37:19;6.55;;;3.10;;
51358;SDS011;37448;51.588;7.248;2023-08-31T00:39:21;6.00;;;2.70;;
51358;SDS011;37448;51.588;7.248;2023-08-31T00:41:22;7.43;;;3.30;;
51358;SDS011;37448;51.588;7.248;2023-08-31T00:43:22;9.15;;;3.03;;
51358;SDS011;37448;51.588;7.248;2023-08-31T00:45:23;5.97;;;3.22;;
51358;SDS011;37448;51.588;7.248;2023-08-31T00:47:24;8.93;;;3.10;;
51358;SDS011;37448;51.588;7.248;2023-08-31T00:49:24;4.65;;;2.80;;
51358;SDS011;37448;51.588;7.248;2023-08-31T00:51:25;7.80;;;3.13;;
51358;SDS011;37448;51.588;7.248;2023-08-31T00:53:25;6.13;;;3.55;;
51358;SDS011;37448;51.588;7.248;2023-08-31T00:55:26;7.57;;;2.90;;
51358;SDS011;37448;51.588;7.248;2023-08-31T00:57:27;7.03;;;3.13;;
51358;SDS011;37448;51.588;7.248;2023-08-31T00:59:27;5.65;;;3.00;;
51358;SDS011;37448;51.588;7.248;2023-08-31T01:04:16;10.23;;;3.10;;
51358;SDS011;37448;51.588;7.248;2023-08-31T01:06:44;7.13;;;3.30;;
51358;SDS011;37448;51.588;7.248;2023-08-31T01:13:34;7.63;;;3.60;;
51358;SDS011;37448;51.588;7.248;2023-08-31T01:15:36;6.28;;;2.90;;
51358;SDS011;37448;51.588;7.248;2023-08-31T01:17:41;5.80;;;3.63;;
51358;SDS011;37448;51.588;7.248;2023-08-31T01:19:50;7.40;;;3.10;;
51358;SDS011;37448;51.588;7.248;2023-08-31T01:21:54;5.22;;;3.03;;
51358;SDS011;37448;51.588;7.248;2023-08-31T01:23:59;6.35;;;3.28;;
51358;SDS011;37448;51.588;7.248;2023-08-31T01:26:01;5.43;;;2.67;;
51358;SDS011;37448;51.588;7.248;2023-08-31T01:28:02;6.00;;;2.95;;
51358;SDS011;37448;51.588;7.248;2023-08-31T01:30:04;5.63;;;3.13;;
51358;SDS011;37448;51.588;7.248;2023-08-31T01:32:05;5.75;;;3.38;;
51358;SDS011;37448;51.588;7.248;2023-08-31T01:34:07;8.05;;;3.45;;
51358;SDS011;37448;51.588;7.248;2023-08-31T01:36:13;8.40;;;2.70;;
51358;SDS011;37448;51.588;7.248;2023-08-31T01:38:19;5.22;;;2.92;;
51358;SDS011;37448;51.588;7.248;2023-08-31T01:40:31;6.55;;;2.92;;
51358;SDS011;37448;51.588;7.248;2023-08-31T01:42:36;5.95;;;3.20;;
51358;SDS011;37448;51.588;7.248;2023-08-31T01:44:38;10.35;;;3.13;;
51358;SDS011;37448;51.588;7.248;2023-08-31T01:46:39;5.38;;;3.33;;
51358;SDS011;37448;51.588;7.248;2023-08-31T01:48:40;5.93;;;2.45;;
51358;SDS011;37448;51.588;7.248;2023-08-31T01:50:41;7.95;;;3.75;;
51358;SDS011;37448;51.588;7.248;2023-08-31T01:52:41;6.45;;;2.70;;
51358;SDS011;37448;51.588;7.248;2023-08-31T01:54:42;5.95;;;3.00;;
51358;SDS011;37448;51.588;7.248;2023-08-31T01:56:42;6.07;;;3.72;;
51358;SDS011;37448;51.588;7.248;2023-08-31T01:58:42;7.07;;;3.20;;
51358;SDS011;37448;51.588;7.248;2023-08-31T02:00:43;6.53;;;3.45;;
51358;SDS011;37448;51.588;7.248;2023-08-31T02:02:45;4.70;;;3.78;;
51358;SDS011;37448;51.588;7.248;2023-08-31T02:04:46;4.72;;;3.72;;
51358;SDS011;37448;51.588;7.248;2023-08-31T02:06:46;8.38;;;3.63;;
51358;SDS011;37448;51.588;7.248;2023-08-31T02:08:46;7.82;;;3.28;;
51358;SDS011;37448;51.588;7.248;2023-08-31T02:10:47;6.43;;;3.63;;
51358;SDS011;37448;51.588;7.248;2023-08-31T02:12:55;6.05;;;3.40;;
51358;SDS011;37448;51.588;7.248;2023-08-31T02:14:56;4.32;;;3.17;;
51358;SDS011;37448;51.588;7.248;2023-08-31T02:16:56;7.18;;;3.90;;
51358;SDS011;37448;51.588;7.248;2023-08-31T02:18:57;7.13;;;3.53;;
51358;SDS011;37448;51.588;7.248;2023-08-31T02:20:58;6.18;;;3.45;;
51358;SDS011;37448;51.588;7.248;2023-08-31T02:22:59;10.70;;;3.72;;
51358;SDS011;37448;51.588;7.248;2023-08-31T02:25:00;7.95;;;3.63;;
51358;SDS011;37448;51.588;7.248;2023-08-31T02:27:03;5.28;;;3.60;;
51358;SDS011;37448;51.588;7.248;2023-08-31T02:29:03;8.32;;;4.20;;
51358;SDS011;37448;51.588;7.248;2023-08-31T02:31:07;6.35;;;4.30;;
51358;SDS011;37448;51.588;7.248;2023-08-31T02:33:07;6.00;;;3.85;;
51358;SDS011;37448;51.588;7.248;2023-08-31T02:35:08;4.95;;;3.70;;
51358;SDS011;37448;51.588;7.248;2023-08-31T02:37:08;6.88;;;3.45;;
51358;SDS011;37448;51.588;7.248;2023-08-31T02:39:09;5.72;;;3.30;;
51358;SDS011;37448;51.588;7.248;2023-08-31T02:41:10;6.55;;;3.28;;
51358;SDS011;37448;51.588;7.248;2023-08-31T02:43:11;6.00;;;3.90;;
51358;SDS011;37448;51.588;7.248;2023-08-31T02:45:11;6.88;;;3.72;;
51358;SDS011;37448;51.588;7.248;2023-08-31T02:47:11;5.88;;;3.10;;
51358;SDS011;37448;51.588;7.248;2023-08-31T02:49:12;8.25;;;3.83;;
51358;SDS011;37448;51.588;7.248;2023-08-31T02:51:12;7.18;;;4.50;;
51358;SDS011;37448;51.588;7.248;2023-08-31T02:53:13;7.05;;;4.43;;
51358;SDS011;37448;51.588;7.248;2023-08-31T02:55:13;9.38;;;5.32;;
51358;SDS011;37448;51.588;7.248;2023-08-31T02:57:14;6.30;;;3.92;;
51358;SDS011;37448;51.588;7.248;2023-08-31T02:59:18;8.98;;;4.50;;
51358;SDS011;37448;51.588;7.248;2023-08-31T03:01:18;8.90;;;5.00;;
51358;SDS011;37448;51.588;7.248;2023-08-31T03:03:21;9.80;;;4.70;;
51358;SDS011;37448;51.588;7.248;2023-08-31T03:05:22;10.05;;;5.18;;
51358;SDS011;37448;51.588;7.248;2023-08-31T03:07:22;9.02;;;5.68;;
51358;SDS011;37448;51.588;7.248;2023-08-31T03:09:23;10.50;;;5.38;;
51358;SDS011;37448;51.588;7.248;2023-08-31T03:11:23;9.57;;;5.78;;
51358;SDS011;37448;51.588;7.248;2023-08-31T03:13:23;11.07;;;5.65;;
51358;SDS011;37448;51.588;7.248;2023-08-31T03:15:24;14.15;;;6.60;;
51358;SDS011;37448;51.588;7.248;2023-08-31T03:17:24;10.88;;;6.72;;
51358;SDS011;37448;51.588;7.248;2023-08-31T03:19:26;10.85;;;6.05;;
51358;SDS011;37448;51.588;7.248;2023-08-31T03:21:26;14.60;;;6.05;;
51358;SDS011;37448;51.588;7.248;2023-08-31T03:23:28;17.70;;;6.30;;
51358;SDS011;37448;51.588;7.248;2023-08-31T03:25:30;13.05;;;6.82;;
51358;SDS011;37448;51.588;7.248;2023-08-31T03:27:31;12.00;;;6.47;;
51358;SDS011;37448;51.588;7.248;2023-08-31T03:29:31;14.32;;;7.10;;
51358;SDS011;37448;51.588;7.248;2023-08-31T03:31:32;9.40;;;6.07;;
51358;SDS011;37448;51.588;7.248;2023-08-31T03:33:32;13.05;;;6.40;;
51358;SDS011;37448;51.588;7.248;2023-08-31T03:35:33;10.40;;;6.25;;
51358;SDS011;37448;51.588;7.248;2023-08-31T03:37:33;13.48;;;6.75;;
51358;SDS011;37448;51.588;7.248;2023-08-31T03:39:34;15.10;;;7.30;;
51358;SDS011;37448;51.588;7.248;2023-08-31T03:41:34;10.98;;;6.05;;
51358;SDS011;37448;51.588;7.248;2023-08-31T03:43:35;13.20;;;6.88;;
51358;SDS011;37448;51.588;7.248;2023-08-31T03:45:36;10.25;;;7.07;;
51358;SDS011;37448;51.588;7.248;2023-08-31T03:47:36;13.65;;;7.50;;
51358;SDS011;37448;51.588;7.248;2023-08-31T03:49:36;14.75;;;7.43;;
51358;SDS011;37448;51.588;7.248;2023-08-31T03:51:37;12.43;;;8.13;;
51358;SDS011;37448;51.588;7.248;2023-08-31T03:53:37;13.18;;;8.15;;
51358;SDS011;37448;51.588;7.248;2023-08-31T03:55:38;16.15;;;8.82;;
51358;SDS011;37448;51.588;7.248;2023-08-31T03:57:38;16.38;;;9.95;;
51358;SDS011;37448;51.588;7.248;2023-08-31T03:59:47;20.48;;;10.13;;
51358;SDS011;37448;51.588;7.248;2023-08-31T04:01:47;17.75;;;9.68;;
51358;SDS011;37448;51.588;7.248;2023-08-31T04:03:48;14.60;;;9.10;;
51358;SDS011;37448;51.588;7.248;2023-08-31T04:05:53;17.75;;;9.70;;
51358;SDS011;37448;51.588;7.248;2023-08-31T04:07:55;17.17;;;9.88;;
51358;SDS011;37448;51.588;7.248;2023-08-31T04:09:55;16.80;;;10.40;;
51358;SDS011;37448;51.588;7.248;2023-08-31T04:11:56;15.93;;;9.55;;
51358;SDS011;37448;51.588;7.248;2023-08-31T04:13:56;16.20;;;9.93;;
51358;SDS011;37448;51.588;7.248;2023-08-31T04:15:57;18.23;;;9.90;;
51358;SDS011;37448;51.588;7.248;2023-08-31T04:17:57;17.33;;;9.73;;
51358;SDS011;37448;51.588;7.248;2023-08-31T04:19:58;15.00;;;8.48;;
51358;SDS011;37448;51.588;7.248;2023-08-31T04:21:58;18.33;;;10.02;;
51358;SDS011;37448;51.588;7.248;2023-08-31T04:23:58;16.65;;;10.20;;
51358;SDS011;37448;51.588;7.248;2023-08-31T04:25:59;17.90;;;9.70;;
51358;SDS011;37448;51.588;7.248;2023-08-31T04:28:00;15.45;;;9.15;;
51358;SDS011;37448;51.588;7.248;2023-08-31T04:30:01;15.02;;;8.98;;
51358;SDS011;37448;51.588;7.248;2023-08-31T04:32:02;21.48;;;9.05;;
51358;SDS011;37448;51.588;7.248;2023-08-31T04:34:03;13.10;;;7.68;;
51358;SDS011;37448;51.588;7.248;2023-08-31T04:36:04;14.70;;;8.60;;
51358;SDS011;37448;51.588;7.248;2023-08-31T04:38:05;13.70;;;8.27;;
51358;SDS011;37448;51.588;7.248;2023-08-31T04:40:05;14.73;;;7.53;;
51358;SDS011;37448;51.588;7.248;2023-08-31T04:42:08;13.00;;;7.35;;
51358;SDS011;37448;51.588;7.248;2023-08-31T04:44:09;15.23;;;8.15;;
51358;SDS011;37448;51.588;7.248;2023-08-31T04:46:09;14.65;;;8.15;;
51358;SDS011;37448;51.588;7.248;2023-08-31T04:48:10;13.93;;;7.93;;
51358;SDS011;37448;51.588;7.248;2023-08-31T04:50:10;14.05;;;8.20;;
51358;SDS011;37448;51.588;7.248;2023-08-31T04:52:11;14.32;;;8.15;;
51358;SDS011;37448;51.588;7.248;2023-08-31T04:54:11;15.15;;;8.38;;
51358;SDS011;37448;51.588;7.248;2023-08-31T04:56:12;13.27;;;7.97;;
51358;SDS011;37448;51.588;7.248;2023-08-31T04:58:12;13.55;;;7.95;;
51358;SDS011;37448;51.588;7.248;2023-08-31T05:00:13;14.02;;;7.65;;
51358;SDS011;37448;51.588;7.248;2023-08-31T05:02:13;13.98;;;8.18;;
51358;SDS011;37448;51.588;7.248;2023-08-31T05:04:14;16.17;;;8.52;;
51358;SDS011;37448;51.588;7.248;2023-08-31T05:06:14;14.52;;;7.55;;
51358;SDS011;37448;51.588;7.248;2023-08-31T05:08:15;15.52;;;8.18;;
51358;SDS011;37448;51.588;7.248;2023-08-31T05:10:15;15.10;;;8.18;;
51358;SDS011;37448;51.588;7.248;2023-08-31T05:12:16;14.40;;;8.85;;
51358;SDS011;37448;51.588;7.248;2023-08-31T05:14:17;13.75;;;7.57;;
51358;SDS011;37448;51.588;7.248;2023-08-31T05:16:18;14.80;;;8.02;;
51358;SDS011;37448;51.588;7.248;2023-08-31T05:18:18;14.93;;;8.02;;
51358;SDS011;37448;51.588;7.248;2023-08-31T05:20:18;17.38;;;8.68;;
51358;SDS011;37448;51.588;7.248;2023-08-31T05:22:19;16.65;;;8.43;;
51358;SDS011;37448;51.588;7.248;2023-08-31T05:24:19;13.80;;;7.85;;
51358;SDS011;37448;51.588;7.248;2023-08-31T05:26:20;16.27;;;7.72;;
51358;SDS011;37448;51.588;7.248;2023-08-31T05:28:20;16.38;;;8.23;;
51358;SDS011;37448;51.588;7.248;2023-08-31T05:30:21;15.48;;;8.00;;
51358;SDS011;37448;51.588;7.248;2023-08-31T05:32:21;13.52;;;7.07;;
51358;SDS011;37448;51.588;7.248;2023-08-31T05:34:22;14.90;;;7.30;;
51358;SDS011;37448;51.588;7.248;2023-08-31T05:36:23;15.30;;;8.35;;
51358;SDS011;37448;51.588;7.248;2023-08-31T05:38:23;12.57;;;8.73;;
51358;SDS011;37448;51.588;7.248;2023-08-31T05:40:24;18.33;;;8.45;;
51358;SDS011;37448;51.588;7.248;2023-08-31T05:42:24;15.00;;;8.27;;
51358;SDS011;37448;51.588;7.248;2023-08-31T05:44:24;15.55;;;7.78;;
51358;SDS011;37448;51.588;7.248;2023-08-31T05:46:25;14.25;;;8.30;;
51358;SDS011;37448;51.588;7.248;2023-08-31T05:48:25;16.70;;;8.40;;
51358;SDS011;37448;51.588;7.248;2023-08-31T05:50:26;12.90;;;7.88;;
51358;SDS011;37448;51.588;7.248;2023-08-31T05:52:27;13.73;;;7.65;;
51358;SDS011;37448;51.588;7.248;2023-08-31T05:54:28;15.20;;;9.07;;
51358;SDS011;37448;51.588;7.248;2023-08-31T05:56:28;15.23;;;8.65;;
51358;SDS011;37448;51.588;7.248;2023-08-31T05:58:29;15.27;;;8.35;;
51358;SDS011;37448;51.588;7.248;2023-08-31T06:00:34;15.63;;;8.82;;
51358;SDS011;37448;51.588;7.248;2023-08-31T06:02:36;17.40;;;10.43;;
51358;SDS011;37448;51.588;7.248;2023-08-31T06:04:36;18.10;;;10.35;;
51358;SDS011;37448;51.588;7.248;2023-08-31T06:06:36;15.68;;;9.15;;
51358;SDS011;37448;51.588;7.248;2023-08-31T06:08:37;15.65;;;9.68;;
51358;SDS011;37448;51.588;7.248;2023-08-31T06:10:38;15.35;;;10.05;;
51358;SDS011;37448;51.588;7.248;2023-08-31T06:12:38;16.27;;;9.65;;
51358;SDS011;37448;51.588;7.248;2023-08-31T06:14:39;15.65;;;9.77;;
51358;SDS011;37448;51.588;7.248;2023-08-31T06:16:39;15.45;;;8.70;;
51358;SDS011;37448;51.588;7.248;2023-08-31T06:18:39;13.95;;;7.70;;
51358;SDS011;37448;51.588;7.248;2023-08-31T06:20:40;12.57;;;7.35;;
51358;SDS011;37448;51.588;7.248;2023-08-31T06:22:40;15.60;;;8.65;;
51358;SDS011;37448;51.588;7.248;2023-08-31T06:24:40;15.65;;;8.98;;
51358;SDS011;37448;51.588;7.248;2023-08-31T06:26:42;19.42;;;8.32;;
51358;SDS011;37448;51.588;7.248;2023-08-31T06:28:42;16.23;;;8.25;;
51358;SDS011;37448;51.588;7.248;2023-08-31T06:30:43;10.60;;;7.45;;
51358;SDS011;37448;51.588;7.248;2023-08-31T06:32:49;10.23;;;6.63;;
51358;SDS011;37448;51.588;7.248;2023-08-31T06:34:50;10.15;;;6.60;;
51358;SDS011;37448;51.588;7.248;2023-08-31T06:36:50;9.65;;;6.72;;
51358;SDS011;37448;51.588;7.248;2023-08-31T06:38:51;10.95;;;6.47;;
51358;SDS011;37448;51.588;7.248;2023-08-31T06:40:51;13.50;;;7.00;;
51358;SDS011;37448;51.588;7.248;2023-08-31T06:42:54;12.68;;;6.63;;
51358;SDS011;37448;51.588;7.248;2023-08-31T06:44:55;11.65;;;6.93;;
51358;SDS011;37448;51.588;7.248;2023-08-31T06:46:57;8.18;;;5.70;;
51358;SDS011;37448;51.588;7.248;2023-08-31T06:48:57;8.38;;;6.32;;
51358;SDS011;37448;51.588;7.248;2023-08-31T06:50:57;9.15;;;6.10;;
51358;SDS011;37448;51.588;7.248;2023-08-31T06:52:58;9.32;;;6.15;;
51358;SDS011;37448;51.588;7.248;2023-08-31T06:54:58;8.80;;;5.80;;
51358;SDS011;37448;51.588;7.248;2023-08-31T06:56:59;6.75;;;4.50;;
51358;SDS011;37448;51.588;7.248;2023-08-31T06:58:59;7.05;;;4.57;;
51358;SDS011;37448;51.588;7.248;2023-08-31T07:01:00;10.68;;;4.53;;
51358;SDS011;37448;51.588;7.248;2023-08-31T07:03:01;8.55;;;4.55;;
51358;SDS011;37448;51.588;7.248;2023-08-31T07:05:02;6.13;;;4.15;;
51358;SDS011;37448;51.588;7.248;2023-08-31T07:07:04;6.75;;;4.03;;
51358;SDS011;37448;51.588;7.248;2023-08-31T07:09:05;4.95;;;3.22;;
51358;SDS011;37448;51.588;7.248;2023-08-31T07:11:07;6.43;;;3.38;;
51358;SDS011;37448;51.588;7.248;2023-08-31T07:13:07;6.50;;;3.97;;
51358;SDS011;37448;51.588;7.248;2023-08-31T07:15:07;5.63;;;3.25;;
51358;SDS011;37448;51.588;7.248;2023-08-31T07:17:08;5.70;;;3.22;;
51358;SDS011;37448;51.588;7.248;2023-08-31T07:19:08;6.82;;;3.38;;
51358;SDS011;37448;51.588;7.248;2023-08-31T07:21:09;5.90;;;3.05;;
51358;SDS011;37448;51.588;7.248;2023-08-31T07:23:10;5.68;;;3.50;;
51358;SDS011;37448;51.588;7.248;2023-08-31T07:25:10;6.97;;;3.78;;
51358;SDS011;37448;51.588;7.248;2023-08-31T07:27:10;7.70;;;3.67;;
51358;SDS011;37448;51.588;7.248;2023-08-31T07:29:11;5.30;;;3.13;;
51358;SDS011;37448;51.588;7.248;2023-08-31T07:31:11;6.82;;;3.53;;
51358;SDS011;37448;51.588;7.248;2023-08-31T07:33:12;4.65;;;3.08;;
51358;SDS011;37448;51.588;7.248;2023-08-31T07:35:12;6.72;;;3.08;;
51358;SDS011;37448;51.588;7.248;2023-08-31T07:37:12;7.13;;;3.13;;
51358;SDS011;37448;51.588;7.248;2023-08-31T07:39:13;7.55;;;3.20;;
51358;SDS011;37448;51.588;7.248;2023-08-31T07:41:13;4.22;;;2.40;;
51358;SDS011;37448;51.588;7.248;2023-08-31T07:43:14;6.60;;;2.90;;
51358;SDS011;37448;51.588;7.248;2023-08-31T07:45:14;8.20;;;3.60;;
51358;SDS011;37448;51.588;7.248;2023-08-31T07:47:14;7.10;;;3.00;;
51358;SDS011;37448;51.588;7.248;2023-08-31T07:49:15;7.25;;;3.05;;
51358;SDS011;37448;51.588;7.248;2023-08-31T07:51:15;8.40;;;2.75;;
51358;SDS011;37448;51.588;7.248;2023-08-31T07:53:15;5.03;;;2.80;;
51358;SDS011;37448;51.588;7.248;2023-08-31T07:55:17;6.05;;;3.20;;
51358;SDS011;37448;51.588;7.248;2023-08-31T07:57:17;6.72;;;2.88;;
51358;SDS011;37448;51.588;7.248;2023-08-31T07:59:18;5.13;;;3.35;;
51358;SDS011;37448;51.588;7.248;2023-08-31T08:01:18;4.13;;;3.10;;
51358;SDS011;37448;51.588;7.248;2023-08-31T08:03:18;7.90;;;4.15;;
51358;SDS011;37448;51.588;7.248;2023-08-31T08:05:19;5.07;;;2.70;;
51358;SDS011;37448;51.588;7.248;2023-08-31T08:07:19;4.68;;;3.25;;
51358;SDS011;37448;51.588;7.248;2023-08-31T08:09:19;4.65;;;3.13;;
51358;SDS011;37448;51.588;7.248;2023-08-31T08:11:21;4.85;;;2.50;;
51358;SDS011;37448;51.588;7.248;2023-08-31T08:13:22;3.80;;;2.35;;
51358;SDS011;37448;51.588;7.248;2023-08-31T08:15:22;5.18;;;3.03;;
51358;SDS011;37448;51.588;7.248;2023-08-31T08:17:23;3.65;;;2.58;;
51358;SDS011;37448;51.588;7.248;2023-08-31T08:19:24;5.38;;;2.75;;
51358;SDS011;37448;51.588;7.248;2023-08-31T08:21:24;4.93;;;2.70;;
51358;SDS011;37448;51.588;7.248;2023-08-31T08:23:25;5.00;;;2.83;;
51358;SDS011;37448;51.588;7.248;2023-08-31T08:25:25;5.72;;;2.47;;
51358;SDS011;37448;51.588;7.248;2023-08-31T08:27:26;3.17;;;2.25;;
51358;SDS011;37448;51.588;7.248;2023-08-31T08:29:26;5.13;;;2.03;;
51358;SDS011;37448;51.588;7.248;2023-08-31T08:31:27;6.15;;;2.00;;
51358;SDS011;37448;51.588;7.248;2023-08-31T08:33:27;3.58;;;2.20;;
51358;SDS011;37448;51.588;7.248;2023-08-31T08:35:28;2.70;;;1.90;;
51358;SDS011;37448;51.588;7.248;2023-08-31T08:37:28;6.00;;;2.25;;
51358;SDS011;37448;51.588;7.248;2023-08-31T08:39:29;3.60;;;1.92;;
51358;SDS011;37448;51.588;7.248;2023-08-31T08:41:30;7.38;;;1.80;;
51358;SDS011;37448;51.588;7.248;2023-08-31T08:43:33;5.10;;;2.25;;
51358;SDS011;37448;51.588;7.248;2023-08-31T08:45:36;4.07;;;2.50;;
51358;SDS011;37448;51.588;7.248;2023-08-31T08:47:38;3.90;;;1.90;;
51358;SDS011;37448;51.588;7.248;2023-08-31T08:49:39;3.55;;;2.15;;
51358;SDS011;37448;51.588;7.248;2023-08-31T08:51:40;4.70;;;1.90;;
51358;SDS011;37448;51.588;7.248;2023-08-31T08:53:42;4.32;;;2.03;;
51358;SDS011;37448;51.588;7.248;2023-08-31T08:55:43;4.60;;;2.28;;
51358;SDS011;37448;51.588;7.248;2023-08-31T08:57:43;4.63;;;1.73;;
51358;SDS011;37448;51.588;7.248;2023-08-31T08:59:44;3.95;;;1.90;;
51358;SDS011;37448;51.588;7.248;2023-08-31T09:01:44;4.93;;;1.80;;
51358;SDS011;37448;51.588;7.248;2023-08-31T09:03:46;4.15;;;1.63;;
51358;SDS011;37448;51.588;7.248;2023-08-31T09:05:46;5.10;;;2.08;;
51358;SDS011;37448;51.588;7.248;2023-08-31T09:10:10;6.32;;;2.33;;
51358;SDS011;37448;51.588;7.248;2023-08-31T09:12:10;2.53;;;1.73;;
51358;SDS011;37448;51.588;7.248;2023-08-31T09:14:18;3.00;;;1.67;;
51358;SDS011;37448;51.588;7.248;2023-08-31T09:16:26;4.45;;;1.83;;
51358;SDS011;37448;51.588;7.248;2023-08-31T09:18:29;3.72;;;2.28;;
51358;SDS011;37448;51.588;7.248;2023-08-31T09:20:43;3.25;;;1.90;;
51358;SDS011;37448;51.588;7.248;2023-08-31T09:22:45;4.00;;;1.98;;
51358;SDS011;37448;51.588;7.248;2023-08-31T09:24:46;4.50;;;2.00;;
51358;SDS011;37448;51.588;7.248;2023-08-31T09:26:47;4.72;;;2.30;;
51358;SDS011;37448;51.588;7.248;2023-08-31T09:28:51;3.60;;;1.77;;
51358;SDS011;37448;51.588;7.248;2023-08-31T09:30:52;4.70;;;2.13;;
51358;SDS011;37448;51.588;7.248;2023-08-31T09:32:53;3.08;;;2.20;;
51358;SDS011;37448;51.588;7.248;2023-08-31T09:34:54;5.68;;;2.17;;
51358;SDS011;37448;51.588;7.248;2023-08-31T09:36:54;5.35;;;2.08;;
51358;SDS011;37448;51.588;7.248;2023-08-31T09:38:58;3.03;;;2.00;;
51358;SDS011;37448;51.588;7.248;2023-08-31T09:41:03;3.35;;;2.13;;
51358;SDS011;37448;51.588;7.248;2023-08-31T09:43:05;4.10;;;2.17;;
51358;SDS011;37448;51.588;7.248;2023-08-31T09:45:06;4.65;;;1.83;;
51358;SDS011;37448;51.588;7.248;2023-08-31T09:47:06;3.72;;;2.05;;
51358;SDS011;37448;51.588;7.248;2023-08-31T09:49:08;2.50;;;2.00;;
51358;SDS011;37448;51.588;7.248;2023-08-31T09:51:12;3.90;;;1.70;;
51358;SDS011;37448;51.588;7.248;2023-08-31T09:53:17;3.63;;;2.00;;
51358;SDS011;37448;51.588;7.248;2023-08-31T09:55:20;3.03;;;2.10;;
51358;SDS011;37448;51.588;7.248;2023-08-31T09:57:22;5.57;;;2.03;;
51358;SDS011;37448;51.588;7.248;2023-08-31T09:59:24;2.45;;;1.40;;
51358;SDS011;37448;51.588;7.248;2023-08-31T10:01:24;4.53;;;1.48;;
51358;SDS011;37448;51.588;7.248;2023-08-31T10:03:25;2.88;;;1.52;;
51358;SDS011;37448;51.588;7.248;2023-08-31T10:05:27;5.50;;;1.77;;
51358;SDS011;37448;51.588;7.248;2023-08-31T10:07:28;4.85;;;1.45;;
51358;SDS011;37448;51.588;7.248;2023-08-31T10:09:28;3.30;;;1.50;;
51358;SDS011;37448;51.588;7.248;2023-08-31T10:11:30;3.65;;;1.77;;
51358;SDS011;37448;51.588;7.248;2023-08-31T10:13:31;3.30;;;2.03;;
51358;SDS011;37448;51.588;7.248;2023-08-31T10:15:36;4.10;;;1.40;;
51358;SDS011;37448;51.588;7.248;2023-08-31T10:17:36;3.95;;;1.63;;
51358;SDS011;37448;51.588;7.248;2023-08-31T10:19:38;3.00;;;1.63;;
51358;SDS011;37448;51.588;7.248;2023-08-31T10:21:40;4.20;;;1.65;;
51358;SDS011;37448;51.588;7.248;2023-08-31T10:23:48;3.33;;;1.70;;
51358;SDS011;37448;51.588;7.248;2023-08-31T10:27:49;4.85;;;1.73;;
51358;SDS011;37448;51.588;7.248;2023-08-31T10:29:53;7.07;;;2.38;;
51358;SDS011;37448;51.588;7.248;2023-08-31T10:31:53;2.45;;;1.70;;
51358;SDS011;37448;51.588;7.248;2023-08-31T10:35:59;6.13;;;1.90;;
51358;SDS011;37448;51.588;7.248;2023-08-31T10:38:15;3.70;;;1.63;;
51358;SDS011;37448;51.588;7.248;2023-08-31T10:40:16;5.18;;;2.25;;
51358;SDS011;37448;51.588;7.248;2023-08-31T10:42:18;3.72;;;2.00;;
51358;SDS011;37448;51.588;7.248;2023-08-31T10:44:19;8.43;;;1.83;;
51358;SDS011;37448;51.588;7.248;2023-08-31T10:48:48;2.78;;;1.75;;
51358;SDS011;37448;51.588;7.248;2023-08-31T10:50:49;2.78;;;1.73;;
51358;SDS011;37448;51.588;7.248;2023-08-31T10:52:50;6.63;;;3.53;;
51358;SDS011;37448;51.588;7.248;2023-08-31T10:54:54;2.47;;;1.65;;
51358;SDS011;37448;51.588;7.248;2023-08-31T10:59:08;1.92;;;1.42;;
51358;SDS011;37448;51.588;7.248;2023-08-31T11:01:08;2.10;;;1.20;;
51358;SDS011;37448;51.588;7.248;2023-08-31T11:03:11;1.65;;;1.10;;
51358;SDS011;37448;51.588;7.248;2023-08-31T11:05:15;3.55;;;1.30;;
51358;SDS011;37448;51.588;7.248;2023-08-31T11:07:18;3.05;;;1.15;;
51358;SDS011;37448;51.588;7.248;2023-08-31T11:09:20;1.42;;;0.95;;
51358;SDS011;37448;51.588;7.248;2023-08-31T11:11:22;1.80;;;1.00;;
51358;SDS011;37448;51.588;7.248;2023-08-31T11:13:23;3.30;;;1.17;;
51358;SDS011;37448;51.588;7.248;2023-08-31T11:15:24;4.60;;;1.08;;
51358;SDS011;37448;51.588;7.248;2023-08-31T11:17:26;2.30;;;0.93;;
51358;SDS011;37448;51.588;7.248;2023-08-31T11:19:30;2.95;;;1.10;;
51358;SDS011;37448;51.588;7.248;2023-08-31T11:21:38;3.17;;;1.10;;
51358;SDS011;37448;51.588;7.248;2023-08-31T11:23:39;2.90;;;1.05;;
51358;SDS011;37448;51.588;7.248;2023-08-31T11:25:39;2.30;;;1.30;;
51358;SDS011;37448;51.588;7.248;2023-08-31T11:27:39;4.10;;;1.33;;
51358;SDS011;37448;51.588;7.248;2023-08-31T11:29:43;3.78;;;1.58;;
51358;SDS011;37448;51.588;7.248;2023-08-31T11:31:44;2.00;;;1.30;;
51358;SDS011;37448;51.588;7.248;2023-08-31T11:33:46;3.03;;;1.52;;
51358;SDS011;37448;51.588;7.248;2023-08-31T11:35:47;2.40;;;1.10;;
51358;SDS011;37448;51.588;7.248;2023-08-31T11:37:51;2.42;;;1.65;;
51358;SDS011;37448;51.588;7.248;2023-08-31T11:39:56;1.73;;;1.13;;
51358;SDS011;37448;51.588;7.248;2023-08-31T11:42:01;2.45;;;1.17;;
51358;SDS011;37448;51.588;7.248;2023-08-31T11:44:05;3.38;;;1.10;;
51358;SDS011;37448;51.588;7.248;2023-08-31T11:46:10;3.47;;;1.08;;
51358;SDS011;37448;51.588;7.248;2023-08-31T11:48:10;2.22;;;1.20;;
51358;SDS011;37448;51.588;7.248;2023-08-31T11:50:11;2.90;;;1.13;;
51358;SDS011;37448;51.588;7.248;2023-08-31T11:52:13;2.63;;;1.30;;
51358;SDS011;37448;51.588;7.248;2023-08-31T11:54:16;2.75;;;1.50;;
51358;SDS011;37448;51.588;7.248;2023-08-31T11:56:17;5.88;;;1.23;;
51358;SDS011;37448;51.588;7.248;2023-08-31T11:58:18;5.40;;;1.50;;
51358;SDS011;37448;51.588;7.248;2023-08-31T12:00:18;2.75;;;1.60;;
51358;SDS011;37448;51.588;7.248;2023-08-31T12:02:21;3.13;;;1.20;;
51358;SDS011;37448;51.588;7.248;2023-08-31T12:04:21;1.48;;;0.80;;
51358;SDS011;37448;51.588;7.248;2023-08-31T12:06:23;2.60;;;1.48;;
51358;SDS011;37448;51.588;7.248;2023-08-31T12:08:24;3.15;;;1.23;;
51358;SDS011;37448;51.588;7.248;2023-08-31T12:10:26;2.65;;;1.13;;
51358;SDS011;37448;51.588;7.248;2023-08-31T12:12:26;3.20;;;1.15;;
51358;SDS011;37448;51.588;7.248;2023-08-31T12:14:28;2.97;;;1.33;;
51358;SDS011;37448;51.588;7.248;2023-08-31T12:16:32;2.65;;;1.25;;
51358;SDS011;37448;51.588;7.248;2023-08-31T12:18:37;3.70;;;0.95;;
51358;SDS011;37448;51.588;7.248;2023-08-31T12:20:44;3.63;;;1.25;;
51358;SDS011;37448;51.588;7.248;2023-08-31T12:22:45;2.33;;;1.10;;
51358;SDS011;37448;51.588;7.248;2023-08-31T12:24:45;5.00;;;1.40;;
51358;SDS011;37448;51.588;7.248;2023-08-31T12:26:46;4.40;;;1.50;;